Terminal Aerodrome Forecast
Issued by NWS Austin/San Antonio, TX

Home | Current Version | Previous Version | Text Only | Print | Product List | Glossary On
Versions: 1 2 3 4 5 6 7 8 9 10 11 12 13 14 15 16 17
949
FTUS44 KEWX 201141 AAA
TAFDRT
TAF AMD
KDRT 201141Z 2012/2112 11005KT 2SM BR OVC005
     FM201600 13010KT P6SM BKN015
     FM201900 14012KT P6SM SCT040 BKN250
     FM210100 12007KT P6SM FEW040 BKN250
     FM211000 12008KT P6SM BKN012=

USA.gov is the U.S. government's official web portal to all federal, state and local government web resources and services.